PWSweather.com
Personal Weather Stations
Station Observations
KCAFRAZI5
West End Drive Area, Frazier Park, CA 93225

West End Drive AreaFrazier Park, CA 93225

Lat: 34.82109, Lon: -118.96053

Elevation: 4940

Station Type: Davis Vantage Pro 2

http://www.fpweather.com

Latest ConditionsUpdated 3:45:00 PM PDT Wednesday, Aug 15, 2018
Currently Today's Max Today's Min Today's Average
Temperature 81.2°F27.3°C 83.7°F28.7°C 51.0°F10.6°C 67.0°F19.4°C
Dew Point 42.1°F5.6°C 43.6°F6.4°C 30.4°F-0.9°C 34.9°F1.6°C
Winds 4.0 mph NW6.4 kmh NW 10.0 mph -16.1 kmh - - 4.9 mph 7.9 kmh
Wind Gusts 6.0 mph9.7 kmh 16.0 mph25.7 kmh - -
Humidity 25% 45% 20% 32%
Pressure 29.76 in1007.8 mb 29.76 in1007.8 mb 29.69 in1005.4 mb -
Hour Temp Dew Point Humidity Winds Wind Gusts Pressure Precip Precip Rate Daily Precip Total
03:45 PM 81.2°F27.3°C 42.1°F5.6°C 25% 4.0 mph NW6.4 kmh NW 6.0 mph9.7 kmh 29.76 in1007.8 mb 0.00 in0.0 mm 0.00 in0.0 mm 0.00 in0.0 mm
03:30 PM 81.2°F27.3°C 42.1°F5.6°C 25% 5.0 mph 8.0 kmh 5.0 mph8.0 kmh 29.76 in1007.8 mb 0.00 in0.0 mm 0.00 in0.0 mm 0.00 in0.0 mm
03:15 PM 81.8°F27.7°C 43.6°F6.4°C 26% 2.0 mph N3.2 kmh N 7.0 mph11.3 kmh 29.75 in1007.5 mb 0.00 in0.0 mm 0.00 in0.0 mm 0.00 in0.0 mm
03:00 PM 82.8°F28.2°C 43.4°F6.3°C 25% 5.0 mph NW8.0 kmh NW 6.0 mph9.7 kmh 29.75 in1007.5 mb 0.00 in0.0 mm 0.00 in0.0 mm 0.00 in0.0 mm
02:45 PM 83.7°F28.7°C 42.0°F5.6°C 23% 9.0 mph NW14.5 kmh NW 9.0 mph14.5 kmh 29.75 in1007.5 mb 0.00 in0.0 mm 0.00 in0.0 mm 0.00 in0.0 mm
02:30 PM 83.6°F28.7°C 43.0°F6.1°C 24% 6.0 mph N9.7 kmh N 11.0 mph17.7 kmh 29.75 in1007.5 mb 0.00 in0.0 mm 0.00 in0.0 mm 0.00 in0.0 mm
02:15 PM 82.8°F28.2°C 42.4°F5.8°C 24% 5.0 mph 8.0 kmh 5.0 mph8.0 kmh 29.75 in1007.5 mb 0.00 in0.0 mm 0.00 in0.0 mm 0.00 in0.0 mm
02:00 PM 83.6°F28.7°C 43.0°F6.1°C 24% 2.0 mph 3.2 kmh 4.0 mph6.4 kmh 29.75 in1007.5 mb 0.00 in0.0 mm 0.00 in0.0 mm 0.00 in0.0 mm
01:45 PM 81.8°F27.7°C 42.6°F5.9°C 25% 3.0 mph WNW4.8 kmh WNW 11.0 mph17.7 kmh 29.75 in1007.5 mb 0.00 in0.0 mm 0.00 in0.0 mm 0.00 in0.0 mm
01:30 PM 81.6°F27.6°C 42.4°F5.8°C 25% 8.0 mph N12.9 kmh N 10.0 mph16.1 kmh 29.76 in1007.8 mb 0.00 in0.0 mm 0.00 in0.0 mm 0.00 in0.0 mm
01:15 PM 81.0°F27.2°C 41.9°F5.5°C 25% 3.0 mph N4.8 kmh N 11.0 mph17.7 kmh 29.74 in1007.1 mb 0.00 in0.0 mm 0.00 in0.0 mm 0.00 in0.0 mm
01:00 PM 83.0°F28.3°C 40.3°F4.6°C 22% 4.0 mph NNW6.4 kmh NNW 11.0 mph17.7 kmh 29.74 in1007.1 mb 0.00 in0.0 mm 0.00 in0.0 mm 0.00 in0.0 mm
12:45 PM 82.8°F28.2°C 40.1°F4.5°C 22% 9.0 mph WNW14.5 kmh WNW 16.0 mph25.7 kmh 29.75 in1007.5 mb 0.00 in0.0 mm 0.00 in0.0 mm 0.00 in0.0 mm
12:30 PM 82.4°F28.0°C 39.8°F4.3°C 22% 4.0 mph N6.4 kmh N 12.0 mph19.3 kmh 29.75 in1007.5 mb 0.00 in0.0 mm 0.00 in0.0 mm 0.00 in0.0 mm
12:15 PM 81.6°F27.6°C 37.9°F3.3°C 21% 3.0 mph NW4.8 kmh NW 10.0 mph16.1 kmh 29.74 in1007.1 mb 0.00 in0.0 mm 0.00 in0.0 mm 0.00 in0.0 mm
12:00 PM 82.0°F27.8°C 37.0°F2.8°C 20% 8.0 mph 12.9 kmh 12.0 mph19.3 kmh 29.75 in1007.5 mb 0.00 in0.0 mm 0.00 in0.0 mm 0.00 in0.0 mm
11:45 AM 80.7°F27.1°C 35.9°F2.2°C 20% 5.0 mph N8.0 kmh N 11.0 mph17.7 kmh 29.75 in1007.5 mb 0.00 in0.0 mm 0.00 in0.0 mm 0.00 in0.0 mm
11:30 AM 79.9°F26.6°C 36.5°F2.5°C 21% 3.0 mph WNW4.8 kmh WNW 10.0 mph16.1 kmh 29.75 in1007.5 mb 0.00 in0.0 mm 0.00 in0.0 mm 0.00 in0.0 mm
11:15 AM 79.5°F26.4°C 36.2°F2.3°C 21% 4.0 mph NW6.4 kmh NW 9.0 mph14.5 kmh 29.73 in1006.8 mb 0.00 in0.0 mm 0.00 in0.0 mm 0.00 in0.0 mm
11:00 AM 79.5°F26.4°C 36.2°F2.3°C 21% 5.0 mph 8.0 kmh 11.0 mph17.7 kmh 29.72 in1006.4 mb 0.00 in0.0 mm 0.00 in0.0 mm 0.00 in0.0 mm
10:45 AM 79.9°F26.6°C 36.5°F2.5°C 21% 4.0 mph NNE6.4 kmh NNE 6.0 mph9.7 kmh 29.72 in1006.4 mb 0.00 in0.0 mm 0.00 in0.0 mm 0.00 in0.0 mm
10:30 AM 79.2°F26.2°C 37.1°F2.8°C 22% 5.0 mph N8.0 kmh N 6.0 mph9.7 kmh 29.72 in1006.4 mb 0.00 in0.0 mm 0.00 in0.0 mm 0.00 in0.0 mm
10:15 AM 78.2°F25.7°C 37.4°F3.0°C 23% 4.0 mph NE6.4 kmh NE 8.0 mph12.9 kmh 29.71 in1006.1 mb 0.00 in0.0 mm 0.00 in0.0 mm 0.00 in0.0 mm
10:00 AM 78.2°F25.7°C 37.4°F3.0°C 23% 3.0 mph 4.8 kmh 6.0 mph9.7 kmh 29.71 in1006.1 mb 0.00 in0.0 mm 0.00 in0.0 mm 0.00 in0.0 mm
09:45 AM 76.8°F24.9°C 38.4°F3.6°C 25% 2.0 mph N3.2 kmh N 3.0 mph4.8 kmh 29.70 in1005.8 mb 0.00 in0.0 mm 0.00 in0.0 mm 0.00 in0.0 mm
09:30 AM 76.1°F24.5°C 37.8°F3.2°C 25% 7.0 mph 11.3 kmh 8.0 mph12.9 kmh 29.70 in1005.8 mb 0.00 in0.0 mm 0.00 in0.0 mm 0.00 in0.0 mm
09:15 AM 75.4°F24.1°C 37.2°F2.9°C 25% 4.0 mph NNW6.4 kmh NNW 4.0 mph6.4 kmh 29.70 in1005.8 mb 0.00 in0.0 mm 0.00 in0.0 mm 0.00 in0.0 mm
09:00 AM 75.2°F24.0°C 36.0°F2.2°C 24% 3.0 mph NNE4.8 kmh NNE 5.0 mph8.0 kmh 29.69 in1005.4 mb 0.00 in0.0 mm 0.00 in0.0 mm 0.00 in0.0 mm
08:45 AM 73.3°F22.9°C 34.4°F1.3°C 24% Calm Calm -- 29.70 in1005.8 mb 0.00 in0.0 mm 0.00 in0.0 mm 0.00 in0.0 mm
08:30 AM 70.4°F21.3°C 32.9°F0.5°C 25% 5.0 mph SSE8.0 kmh SSE 9.0 mph14.5 kmh 29.71 in1006.1 mb 0.00 in0.0 mm 0.00 in0.0 mm 0.00 in0.0 mm
08:15 AM 66.9°F19.4°C 32.8°F0.4°C 28% 7.0 mph S11.3 kmh S 7.0 mph11.3 kmh 29.71 in1006.1 mb 0.00 in0.0 mm 0.00 in0.0 mm 0.00 in0.0 mm
08:00 AM 63.3°F17.4°C 31.4°F-0.3°C 30% 6.0 mph SSE9.7 kmh SSE 9.0 mph14.5 kmh 29.73 in1006.8 mb 0.00 in0.0 mm 0.00 in0.0 mm 0.00 in0.0 mm
07:45 AM 60.0°F15.6°C 31.6°F-0.2°C 34% 7.0 mph SSE11.3 kmh SSE 9.0 mph14.5 kmh 29.74 in1007.1 mb 0.00 in0.0 mm 0.00 in0.0 mm 0.00 in0.0 mm
07:30 AM 57.4°F14.1°C 32.0°F0.0°C 38% 6.0 mph S9.7 kmh S 8.0 mph12.9 kmh 29.75 in1007.5 mb 0.00 in0.0 mm 0.00 in0.0 mm 0.00 in0.0 mm
07:15 AM 55.0°F12.8°C 31.1°F-0.5°C 40% 7.0 mph S11.3 kmh S 10.0 mph16.1 kmh 29.75 in1007.5 mb 0.00 in0.0 mm 0.00 in0.0 mm 0.00 in0.0 mm
07:00 AM 53.1°F11.7°C 31.2°F-0.4°C 43% 7.0 mph SSE11.3 kmh SSE 10.0 mph16.1 kmh 29.74 in1007.1 mb 0.00 in0.0 mm 0.00 in0.0 mm 0.00 in0.0 mm
06:45 AM 51.5°F10.8°C 30.9°F-0.6°C 45% 7.0 mph S11.3 kmh S 8.0 mph12.9 kmh 29.75 in1007.5 mb 0.00 in0.0 mm 0.00 in0.0 mm 0.00 in0.0 mm
06:30 AM 51.2°F10.7°C 30.6°F-0.8°C 45% 7.0 mph S11.3 kmh S 7.0 mph11.3 kmh 29.75 in1007.5 mb 0.00 in0.0 mm 0.00 in0.0 mm 0.00 in0.0 mm
06:15 AM 51.0°F10.6°C 30.4°F-0.9°C 45% 4.0 mph S6.4 kmh S 9.0 mph14.5 kmh 29.73 in1006.8 mb 0.00 in0.0 mm 0.00 in0.0 mm 0.00 in0.0 mm
06:00 AM 51.2°F10.7°C 30.6°F-0.8°C 45% 4.0 mph S6.4 kmh S 7.0 mph11.3 kmh 29.73 in1006.8 mb 0.00 in0.0 mm 0.00 in0.0 mm 0.00 in0.0 mm
05:45 AM 51.8°F11.0°C 30.6°F-0.8°C 44% 5.0 mph S8.0 kmh S 6.0 mph9.7 kmh 29.73 in1006.8 mb 0.00 in0.0 mm 0.00 in0.0 mm 0.00 in0.0 mm
05:30 AM 52.2°F11.2°C 31.0°F-0.6°C 44% 3.0 mph S4.8 kmh S 5.0 mph8.0 kmh 29.72 in1006.4 mb 0.00 in0.0 mm 0.00 in0.0 mm 0.00 in0.0 mm
05:15 AM 52.5°F11.4°C 30.7°F-0.7°C 43% 5.0 mph S8.0 kmh S 7.0 mph11.3 kmh 29.72 in1006.4 mb 0.00 in0.0 mm 0.00 in0.0 mm 0.00 in0.0 mm
05:00 AM 52.2°F11.2°C 30.4°F-0.9°C 43% 4.0 mph S6.4 kmh S 5.0 mph8.0 kmh 29.71 in1006.1 mb 0.00 in0.0 mm 0.00 in0.0 mm 0.00 in0.0 mm
04:45 AM 52.7°F11.5°C 30.9°F-0.6°C 43% 3.0 mph S4.8 kmh S 6.0 mph9.7 kmh 29.71 in1006.1 mb 0.00 in0.0 mm 0.00 in0.0 mm 0.00 in0.0 mm
04:30 AM 52.8°F11.6°C 30.9°F-0.6°C 43% 3.0 mph S4.8 kmh S 5.0 mph8.0 kmh 29.71 in1006.1 mb 0.00 in0.0 mm 0.00 in0.0 mm 0.00 in0.0 mm
04:15 AM 53.1°F11.7°C 31.2°F-0.4°C 43% 6.0 mph SSE9.7 kmh SSE 7.0 mph11.3 kmh 29.70 in1005.8 mb 0.00 in0.0 mm 0.00 in0.0 mm 0.00 in0.0 mm
04:00 AM 53.5°F11.9°C 31.0°F-0.6°C 42% 8.0 mph SSE12.9 kmh SSE 9.0 mph14.5 kmh 29.70 in1005.8 mb 0.00 in0.0 mm 0.00 in0.0 mm 0.00 in0.0 mm
03:45 AM 54.1°F12.3°C 31.5°F-0.3°C 42% 7.0 mph SSE11.3 kmh SSE 12.0 mph19.3 kmh 29.70 in1005.8 mb 0.00 in0.0 mm 0.00 in0.0 mm 0.00 in0.0 mm
03:30 AM 54.6°F12.6°C 31.4°F-0.3°C 41% 10.0 mph SSE16.1 kmh SSE 10.0 mph16.1 kmh 29.70 in1005.8 mb 0.00 in0.0 mm 0.00 in0.0 mm 0.00 in0.0 mm
03:15 AM 54.9°F12.7°C 31.7°F-0.2°C 41% 5.0 mph SSE8.0 kmh SSE 9.0 mph14.5 kmh 29.69 in1005.4 mb 0.00 in0.0 mm 0.00 in0.0 mm 0.00 in0.0 mm
03:00 AM 55.2°F12.9°C 31.9°F-0.1°C 41% 6.0 mph S9.7 kmh S 7.0 mph11.3 kmh 29.70 in1005.8 mb 0.00 in0.0 mm 0.00 in0.0 mm 0.00 in0.0 mm
02:45 AM 55.9°F13.3°C 32.0°F0.0°C 40% 6.0 mph SSE9.7 kmh SSE 10.0 mph16.1 kmh 29.70 in1005.8 mb 0.00 in0.0 mm 0.00 in0.0 mm 0.00 in0.0 mm
02:30 AM 55.9°F13.3°C 31.3°F-0.4°C 39% 5.0 mph S8.0 kmh S 8.0 mph12.9 kmh 29.71 in1006.1 mb 0.00 in0.0 mm 0.00 in0.0 mm 0.00 in0.0 mm
02:15 AM 56.1°F13.4°C 31.5°F-0.3°C 39% 6.0 mph S9.7 kmh S 9.0 mph14.5 kmh 29.71 in1006.1 mb 0.00 in0.0 mm 0.00 in0.0 mm 0.00 in0.0 mm
02:00 AM 56.3°F13.5°C 31.7°F-0.2°C 39% 5.0 mph S8.0 kmh S 7.0 mph11.3 kmh 29.70 in1005.8 mb 0.00 in0.0 mm 0.00 in0.0 mm 0.00 in0.0 mm
01:45 AM 56.9°F13.8°C 31.6°F-0.2°C 38% 6.0 mph S9.7 kmh S 7.0 mph11.3 kmh 29.70 in1005.8 mb 0.00 in0.0 mm 0.00 in0.0 mm 0.00 in0.0 mm
01:30 AM 56.9°F13.8°C 31.6°F-0.2°C 38% 6.0 mph S9.7 kmh S 10.0 mph16.1 kmh 29.71 in1006.1 mb 0.00 in0.0 mm 0.00 in0.0 mm 0.00 in0.0 mm
01:15 AM 58.2°F14.6°C 31.4°F-0.3°C 36% 5.0 mph S8.0 kmh S 6.0 mph9.7 kmh 29.72 in1006.4 mb 0.00 in0.0 mm 0.00 in0.0 mm 0.00 in0.0 mm
01:00 AM 58.2°F14.6°C 31.4°F-0.3°C 36% 5.0 mph S8.0 kmh S 7.0 mph11.3 kmh 29.72 in1006.4 mb 0.00 in0.0 mm 0.00 in0.0 mm 0.00 in0.0 mm
12:45 AM 58.5°F14.7°C 31.0°F-0.6°C 35% 5.0 mph S8.0 kmh S 6.0 mph9.7 kmh 29.72 in1006.4 mb 0.00 in0.0 mm 0.00 in0.0 mm 0.00 in0.0 mm
12:30 AM 58.6°F14.8°C 31.1°F-0.5°C 35% 1.0 mph S1.6 kmh S 4.0 mph6.4 kmh 29.72 in1006.4 mb 0.00 in0.0 mm 0.00 in0.0 mm 0.00 in0.0 mm
12:15 AM 58.9°F14.9°C 30.6°F-0.8°C 34% 1.0 mph S1.6 kmh S 3.0 mph4.8 kmh 29.71 in1006.1 mb 0.00 in0.0 mm 0.00 in0.0 mm 0.00 in0.0 mm
12:00 AM 60.5°F15.8°C 31.3°F-0.4°C 33% 4.0 mph S6.4 kmh S 7.0 mph11.3 kmh 29.72 in1006.4 mb 0.00 in0.0 mm 0.00 in0.0 mm 0.00 in0.0 mm